createdAt,value
2018-09-28T00:02:16.306Z,3.60
2018-09-28T00:04:43.774Z,3.40
2018-09-28T00:07:11.220Z,3.27
2018-09-28T00:09:38.636Z,3.13
2018-09-28T00:12:06.125Z,3.27
2018-09-28T00:14:33.524Z,3.30
2018-09-28T00:17:00.990Z,3.30
2018-09-28T00:19:28.530Z,3.60
2018-09-28T00:21:55.951Z,3.53
2018-09-28T00:24:23.351Z,3.70
2018-09-28T00:26:50.732Z,3.47
2018-09-28T00:29:18.074Z,3.20
2018-09-28T00:31:45.492Z,3.57
2018-09-28T00:34:12.872Z,3.63
2018-09-28T00:36:40.321Z,3.40
2018-09-28T00:39:08.399Z,3.60
2018-09-28T00:41:35.909Z,3.70
2018-09-28T00:44:03.428Z,3.90
2018-09-28T00:46:30.786Z,4.23
2018-09-28T00:48:58.140Z,3.50
2018-09-28T00:51:25.534Z,4.47
2018-09-28T00:53:52.905Z,4.20
2018-09-28T00:56:20.405Z,3.70
2018-09-28T00:58:47.880Z,4.00
2018-09-28T01:01:15.328Z,3.73
2018-09-28T01:03:42.797Z,3.20
2018-09-28T01:06:10.153Z,3.50
2018-09-28T01:08:37.548Z,2.90
2018-09-28T01:11:05.008Z,3.50
2018-09-28T01:13:32.458Z,3.90
2018-09-28T01:15:59.857Z,3.33
2018-09-28T01:18:27.310Z,3.50
2018-09-28T01:20:54.808Z,3.43
2018-09-28T01:23:22.185Z,3.47
2018-09-28T01:25:49.546Z,3.10
2018-09-28T01:28:17.009Z,3.77
2018-09-28T01:30:44.486Z,3.60
2018-09-28T01:33:11.893Z,3.90
2018-09-28T01:35:39.387Z,3.30
2018-09-28T01:38:06.751Z,3.93
2018-09-28T01:40:34.252Z,3.30
2018-09-28T01:43:01.697Z,3.70
2018-09-28T01:45:29.156Z,3.50
2018-09-28T01:47:56.538Z,4.00
2018-09-28T01:50:23.920Z,3.80
2018-09-28T01:52:51.457Z,4.00
2018-09-28T01:55:18.868Z,3.93
2018-09-28T01:57:46.232Z,4.10
2018-09-28T02:00:13.672Z,4.10
2018-09-28T02:02:41.202Z,3.83
2018-09-28T02:05:08.620Z,3.93
2018-09-28T02:07:36.114Z,4.50
2018-09-28T02:10:03.566Z,3.97
2018-09-28T02:12:31.096Z,4.33
2018-09-28T02:14:58.454Z,4.70
2018-09-28T02:17:25.868Z,5.33
2018-09-28T02:19:53.347Z,6.10
2018-09-28T02:22:20.795Z,6.90
2018-09-28T02:24:48.336Z,7.23
2018-09-28T02:27:15.844Z,6.80
2018-09-28T02:29:43.195Z,6.77
2018-09-28T02:32:10.606Z,6.60
2018-09-28T02:34:38.100Z,5.90
2018-09-28T02:37:06.080Z,6.37
2018-09-28T02:39:33.441Z,5.00
2018-09-28T02:42:00.903Z,4.83
2018-09-28T02:44:28.391Z,4.47
2018-09-28T02:46:55.780Z,3.70
2018-09-28T02:49:23.154Z,4.50
2018-09-28T02:51:50.661Z,4.50
2018-09-28T02:54:18.057Z,4.40
2018-09-28T02:56:45.544Z,4.70
2018-09-28T02:59:12.962Z,4.70
2018-09-28T03:01:40.417Z,4.43
2018-09-28T03:04:07.898Z,5.13
2018-09-28T03:06:35.351Z,5.67
2018-09-28T03:09:03.064Z,6.43
2018-09-28T03:11:30.474Z,7.10
2018-09-28T03:13:57.884Z,6.27
2018-09-28T03:16:25.262Z,6.83
2018-09-28T03:18:52.638Z,7.10
2018-09-28T03:21:20.094Z,5.50
2018-09-28T03:23:47.596Z,5.37
2018-09-28T03:26:15.064Z,5.40
2018-09-28T03:28:42.500Z,4.67
2018-09-28T03:31:09.913Z,4.73
2018-09-28T03:33:37.428Z,5.60
2018-09-28T03:36:04.912Z,4.70
2018-09-28T03:38:32.664Z,4.63
2018-09-28T03:41:00.134Z,4.70
2018-09-28T03:43:27.586Z,4.53
2018-09-28T03:45:54.934Z,4.63
2018-09-28T03:48:22.334Z,4.50
2018-09-28T03:50:49.765Z,4.37
2018-09-28T03:53:17.182Z,3.90
2018-09-28T03:55:44.592Z,4.33
2018-09-28T03:58:12.053Z,4.33
2018-09-28T04:00:39.411Z,3.80
2018-09-28T04:03:06.999Z,4.60
2018-09-28T04:05:34.397Z,4.77
2018-09-28T04:08:01.901Z,4.63
2018-09-28T04:10:29.343Z,4.47
2018-09-28T04:12:56.842Z,4.27
2018-09-28T04:15:24.256Z,4.23
2018-09-28T04:17:51.724Z,4.40
2018-09-28T04:20:19.138Z,4.50
2018-09-28T04:22:46.603Z,4.93
2018-09-28T04:25:14.099Z,4.60
2018-09-28T04:27:41.549Z,4.60
2018-09-28T04:30:08.949Z,4.20
2018-09-28T04:32:36.382Z,4.53
2018-09-28T04:35:03.844Z,4.47
2018-09-28T04:37:31.232Z,4.67
2018-09-28T04:39:58.686Z,4.53
2018-09-28T04:42:26.113Z,4.40
2018-09-28T04:44:53.539Z,4.33
2018-09-28T04:47:23.419Z,4.40
2018-09-28T04:49:51.320Z,4.60
2018-09-28T04:52:18.800Z,5.07
2018-09-28T04:54:46.225Z,4.60
2018-09-28T04:57:13.672Z,4.33
2018-09-28T04:59:41.146Z,4.33
2018-09-28T05:02:08.614Z,4.47
2018-09-28T05:04:36.021Z,4.47
2018-09-28T05:07:03.467Z,4.10
2018-09-28T05:09:30.850Z,4.53
2018-09-28T05:11:58.267Z,4.30
2018-09-28T05:14:32.303Z,5.30
2018-09-28T05:16:59.780Z,5.10
2018-09-28T05:19:27.296Z,5.27
2018-09-28T05:21:54.738Z,5.27
2018-09-28T05:24:22.114Z,5.70
2018-09-28T05:26:49.624Z,5.00
2018-09-28T05:29:17.039Z,4.60
2018-09-28T05:31:44.862Z,4.37
2018-09-28T05:34:12.224Z,4.80
2018-09-28T05:36:39.641Z,4.60
2018-09-28T05:39:07.609Z,4.40
2018-09-28T05:41:35.034Z,4.40
2018-09-28T05:44:02.510Z,4.27
2018-09-28T05:46:30.002Z,4.90
2018-09-28T05:48:57.475Z,4.70
2018-09-28T05:51:24.934Z,4.63
2018-09-28T05:53:52.365Z,4.93
2018-09-28T05:56:19.743Z,4.47
2018-09-28T05:58:52.658Z,4.37
2018-09-28T06:01:25.804Z,4.90
2018-09-28T06:03:59.008Z,5.07
2018-09-28T06:06:26.408Z,4.70
2018-09-28T06:08:53.754Z,4.70
2018-09-28T06:11:21.233Z,4.73
2018-09-28T06:13:48.647Z,4.23
2018-09-28T06:16:16.103Z,4.63
2018-09-28T06:18:43.584Z,4.60
2018-09-28T06:21:11.048Z,5.20
2018-09-28T06:23:38.432Z,5.03
2018-09-28T06:26:06.083Z,4.90
2018-09-28T06:28:33.461Z,5.10
2018-09-28T06:31:00.803Z,4.90
2018-09-28T06:33:28.302Z,5.90
2018-09-28T06:35:55.697Z,5.20
2018-09-28T06:38:23.118Z,6.97
2018-09-28T06:40:50.560Z,5.63
2018-09-28T06:43:17.934Z,5.20
2018-09-28T06:45:45.431Z,6.67
2018-09-28T06:48:12.881Z,5.90
2018-09-28T06:50:40.305Z,6.03
2018-09-28T06:53:07.799Z,6.40
2018-09-28T06:55:35.270Z,6.90
2018-09-28T06:58:02.675Z,6.53
2018-09-28T07:00:30.085Z,6.90
2018-09-28T07:02:57.572Z,6.23
2018-09-28T07:05:25.099Z,5.97
2018-09-28T07:07:52.455Z,6.00
2018-09-28T07:10:20.002Z,8.70
2018-09-28T07:12:47.393Z,7.00
2018-09-28T07:15:14.890Z,7.43
2018-09-28T07:17:42.307Z,7.10
2018-09-28T07:20:09.809Z,8.10
2018-09-28T07:22:37.214Z,7.90
2018-09-28T07:25:04.691Z,7.63
2018-09-28T07:27:32.120Z,8.40
2018-09-28T07:29:59.653Z,7.90
2018-09-28T07:32:27.031Z,7.30
2018-09-28T07:34:54.502Z,8.07
2018-09-28T07:37:22.041Z,7.43
2018-09-28T07:39:49.487Z,7.17
2018-09-28T07:42:17.032Z,7.90
2018-09-28T07:44:44.418Z,6.70
2018-09-28T07:47:11.814Z,7.80
2018-09-28T07:49:39.265Z,7.47
2018-09-28T07:52:06.758Z,6.70
2018-09-28T07:54:34.216Z,7.93
2018-09-28T07:57:01.653Z,8.97
2018-09-28T07:59:29.002Z,7.93
2018-09-28T08:01:56.456Z,8.07
2018-09-28T08:04:23.921Z,8.93
2018-09-28T08:06:51.315Z,8.00
2018-09-28T08:09:18.818Z,9.47
2018-09-28T08:11:46.292Z,8.80
2018-09-28T08:14:13.794Z,8.57
2018-09-28T08:16:41.262Z,7.87
2018-09-28T08:19:08.797Z,8.37
2018-09-28T08:21:36.454Z,8.50
2018-09-28T08:24:04.008Z,7.20
2018-09-28T08:26:31.441Z,8.50
2018-09-28T08:28:58.920Z,7.67
2018-09-28T08:31:26.341Z,9.63
2018-09-28T08:33:53.762Z,8.37
2018-09-28T08:36:21.193Z,9.10
2018-09-28T08:38:48.664Z,8.90
2018-09-28T08:41:16.018Z,10.03
2018-09-28T08:43:43.482Z,10.07
2018-09-28T08:46:10.880Z,9.20
2018-09-28T08:48:38.342Z,8.73
2018-09-28T08:51:06.119Z,10.00
2018-09-28T08:53:33.544Z,10.17
2018-09-28T08:56:01.023Z,10.13
2018-09-28T08:58:28.492Z,9.60
2018-09-28T09:00:55.938Z,9.93
2018-09-28T09:03:23.396Z,8.40
2018-09-28T09:05:50.868Z,8.83
2018-09-28T09:08:18.279Z,9.27
2018-09-28T09:10:45.797Z,9.67
2018-09-28T09:13:13.178Z,7.63
2018-09-28T09:15:40.550Z,8.07
2018-09-28T09:18:08.102Z,7.33
2018-09-28T09:20:35.456Z,6.80
2018-09-28T09:23:02.976Z,8.00
2018-09-28T09:25:30.464Z,7.70
2018-09-28T09:27:57.799Z,6.87
2018-09-28T09:30:25.248Z,7.17
2018-09-28T09:32:52.701Z,6.47
2018-09-28T09:35:20.129Z,6.73
2018-09-28T09:37:47.545Z,5.77
2018-09-28T09:40:15.070Z,6.67
2018-09-28T09:42:42.567Z,7.20
2018-09-28T09:45:09.844Z,6.97
2018-09-28T09:47:37.294Z,5.70
2018-09-28T09:50:04.800Z,6.27
2018-09-28T09:52:32.273Z,6.80
2018-09-28T09:54:59.653Z,6.47
2018-09-28T09:57:27.056Z,6.60
2018-09-28T09:59:54.490Z,6.60
2018-09-28T10:02:27.591Z,5.57
2018-09-28T10:04:54.982Z,6.40
2018-09-28T10:07:22.529Z,5.80
2018-09-28T10:09:50.055Z,5.60
2018-09-28T10:12:17.433Z,5.50
2018-09-28T10:14:44.929Z,6.23
2018-09-28T10:17:12.382Z,6.43
2018-09-28T10:19:39.808Z,5.53
2018-09-28T10:22:07.208Z,5.63
2018-09-28T10:24:34.636Z,6.03
2018-09-28T10:27:02.063Z,5.50
2018-09-28T10:29:29.413Z,5.20
2018-09-28T10:31:56.877Z,5.20
2018-09-28T10:34:24.329Z,6.30
2018-09-28T10:36:51.691Z,5.63
2018-09-28T10:39:19.229Z,5.87
2018-09-28T10:41:46.524Z,5.77
2018-09-28T10:44:13.982Z,5.30
2018-09-28T10:46:41.489Z,6.20
2018-09-28T10:49:08.847Z,5.20
2018-09-28T10:51:36.433Z,5.40
2018-09-28T10:54:03.890Z,5.47
2018-09-28T10:56:31.391Z,5.40
2018-09-28T10:58:58.857Z,4.63
2018-09-28T11:01:26.256Z,5.83
2018-09-28T11:03:53.673Z,4.93
2018-09-28T11:06:21.024Z,4.93
2018-09-28T11:08:48.500Z,4.40
2018-09-28T11:11:15.866Z,4.57
2018-09-28T11:13:43.322Z,4.50
2018-09-28T11:16:10.787Z,4.13
2018-09-28T11:18:38.211Z,4.60
2018-09-28T11:21:05.970Z,4.10
2018-09-28T11:23:33.407Z,3.17
2018-09-28T11:26:00.828Z,3.33
2018-09-28T11:28:28.282Z,2.70
2018-09-28T11:30:55.646Z,3.17
2018-09-28T11:33:23.052Z,3.53
2018-09-28T11:35:50.483Z,3.00
2018-09-28T11:38:18.042Z,4.43
2018-09-28T11:40:45.523Z,4.10
2018-09-28T11:43:12.910Z,3.93
2018-09-28T11:45:40.297Z,3.27
2018-09-28T11:48:07.658Z,3.20
2018-09-28T11:50:35.100Z,2.70
2018-09-28T11:53:02.499Z,3.60
2018-09-28T11:55:29.862Z,3.43
2018-09-28T11:57:57.555Z,3.73
2018-09-28T12:00:25.000Z,2.90
2018-09-28T12:02:52.422Z,2.80
2018-09-28T12:05:19.858Z,3.93
2018-09-28T12:07:47.392Z,2.90
2018-09-28T12:10:14.896Z,3.00
2018-09-28T12:12:42.316Z,3.43
2018-09-28T12:15:09.669Z,3.10
2018-09-28T12:17:37.159Z,2.50
2018-09-28T12:20:06.004Z,3.10
2018-09-28T12:22:33.347Z,2.40
2018-09-28T12:25:00.766Z,2.03
2018-09-28T12:27:28.307Z,2.30
2018-09-28T12:29:55.696Z,2.17
2018-09-28T12:32:23.166Z,2.50
2018-09-28T12:34:50.584Z,2.60
2018-09-28T12:37:17.996Z,2.77
2018-09-28T12:39:45.695Z,2.30
2018-09-28T12:42:12.957Z,3.43
2018-09-28T12:44:40.401Z,2.30
2018-09-28T12:47:07.769Z,2.30
2018-09-28T12:49:35.168Z,4.13
2018-09-28T12:52:02.861Z,4.10
2018-09-28T12:54:32.195Z,3.50
2018-09-28T12:56:59.608Z,2.83
2018-09-28T12:59:27.013Z,3.93
2018-09-28T13:01:54.384Z,3.00
2018-09-28T13:04:21.796Z,4.03
2018-09-28T13:06:49.838Z,3.53
2018-09-28T13:09:17.171Z,3.60
2018-09-28T13:11:44.824Z,4.00
2018-09-28T13:14:12.361Z,4.37
2018-09-28T13:16:39.973Z,4.13
2018-09-28T13:19:07.683Z,4.03
2018-09-28T13:21:35.220Z,3.50
2018-09-28T13:24:02.575Z,3.80
2018-09-28T13:26:30.084Z,4.50
2018-09-28T13:28:57.483Z,4.27
2018-09-28T13:31:25.242Z,4.23
2018-09-28T13:33:52.621Z,3.73
2018-09-28T13:36:20.074Z,3.90
2018-09-28T13:38:47.521Z,3.80
2018-09-28T13:41:14.870Z,3.97
2018-09-28T13:43:42.298Z,3.77
2018-09-28T13:46:09.845Z,5.00
2018-09-28T13:48:37.307Z,4.60
2018-09-28T13:51:04.784Z,4.37
2018-09-28T13:53:32.211Z,4.20
2018-09-28T13:55:59.696Z,4.37
2018-09-28T13:58:27.203Z,5.87
2018-09-28T14:00:54.584Z,4.77
2018-09-28T14:03:22.114Z,4.87
2018-09-28T14:05:49.756Z,5.57
2018-09-28T14:08:17.309Z,5.53
2018-09-28T14:10:44.849Z,4.40
2018-09-28T14:13:12.354Z,4.73
2018-09-28T14:15:39.756Z,5.07
2018-09-28T14:18:07.297Z,4.90
2018-09-28T14:20:34.720Z,4.23
2018-09-28T14:23:02.160Z,4.13
2018-09-28T14:25:29.627Z,4.97
2018-09-28T14:27:57.914Z,5.23
2018-09-28T14:30:25.733Z,4.53
2018-09-28T14:32:53.412Z,4.30
2018-09-28T14:35:20.883Z,4.13
2018-09-28T14:37:48.685Z,4.60
2018-09-28T14:40:16.219Z,4.83
2018-09-28T14:42:43.650Z,6.70
2018-09-28T14:45:11.024Z,5.30
2018-09-28T14:47:39.495Z,4.90
2018-09-28T14:50:07.025Z,5.67
2018-09-28T14:52:34.377Z,4.93
2018-09-28T14:55:01.837Z,5.33
2018-09-28T14:57:29.250Z,5.17
2018-09-28T14:59:56.749Z,5.13
2018-09-28T15:02:24.210Z,4.10
2018-09-28T15:04:51.630Z,3.70
2018-09-28T15:07:18.970Z,4.40
2018-09-28T15:09:47.247Z,4.13
2018-09-28T15:12:14.605Z,5.03
2018-09-28T15:14:42.103Z,5.90
2018-09-28T15:17:09.460Z,6.30
2018-09-28T15:19:37.017Z,6.00
2018-09-28T15:22:04.593Z,5.30
2018-09-28T15:24:32.077Z,6.30
2018-09-28T15:26:59.532Z,5.63
2018-09-28T15:29:26.996Z,7.77
2018-09-28T15:31:54.450Z,8.10
2018-09-28T15:34:21.972Z,6.90
2018-09-28T15:36:49.359Z,7.33
2018-09-28T15:39:17.648Z,9.00
2018-09-28T15:41:45.153Z,8.77
2018-09-28T15:44:12.629Z,8.33
2018-09-28T15:46:40.053Z,8.57
2018-09-28T15:49:07.584Z,8.70
2018-09-28T15:51:35.163Z,8.27
2018-09-28T15:54:02.644Z,8.90
2018-09-28T15:56:29.966Z,8.50
2018-09-28T15:58:57.392Z,8.23
2018-09-28T16:01:24.854Z,9.20
2018-09-28T16:03:52.284Z,9.00
2018-09-28T16:06:19.750Z,8.87
2018-09-28T16:08:47.169Z,9.40
2018-09-28T16:11:14.904Z,9.00
2018-09-28T16:13:42.465Z,9.30
2018-09-28T16:16:10.019Z,8.40
2018-09-28T16:18:37.945Z,8.80
2018-09-28T16:21:05.358Z,9.07
2018-09-28T16:23:32.823Z,9.60
2018-09-28T16:26:00.384Z,8.33
2018-09-28T16:28:27.826Z,8.20
2018-09-28T16:30:55.224Z,9.17
2018-09-28T16:33:22.610Z,8.30
2018-09-28T16:35:50.149Z,9.50
2018-09-28T16:38:17.444Z,8.40
2018-09-28T16:40:44.903Z,8.20
2018-09-28T16:43:12.285Z,9.13
2018-09-28T16:45:39.720Z,8.13
2018-09-28T16:48:07.218Z,7.47
2018-09-28T16:50:35.689Z,7.70
2018-09-28T16:53:03.300Z,8.30
2018-09-28T16:55:30.861Z,7.73
2018-09-28T16:57:58.211Z,7.57
2018-09-28T17:00:25.701Z,7.90
2018-09-28T17:02:53.119Z,7.97
2018-09-28T17:05:20.472Z,7.77
2018-09-28T17:07:47.923Z,7.37
2018-09-28T17:10:15.366Z,7.50
2018-09-28T17:12:42.838Z,7.80
2018-09-28T17:15:10.292Z,8.77
2018-09-28T17:17:37.721Z,8.23
2018-09-28T17:20:05.234Z,8.40
2018-09-28T17:22:32.826Z,7.90
2018-09-28T17:25:00.333Z,7.57
2018-09-28T17:27:27.970Z,7.80
2018-09-28T17:29:55.405Z,9.30
2018-09-28T17:32:23.128Z,8.77
2018-09-28T17:34:50.577Z,7.30
2018-09-28T17:37:17.938Z,7.60
2018-09-28T17:39:45.420Z,7.80
2018-09-28T17:42:12.870Z,6.97
2018-09-28T17:44:40.414Z,7.93
2018-09-28T17:47:07.842Z,7.37
2018-09-28T17:49:35.352Z,7.53
2018-09-28T17:52:02.808Z,8.47
2018-09-28T17:54:30.248Z,7.67
2018-09-28T17:56:57.614Z,8.50
2018-09-28T17:59:25.064Z,7.87
2018-09-28T18:01:52.407Z,6.20
2018-09-28T18:04:19.874Z,5.97
2018-09-28T18:06:47.309Z,4.27
2018-09-28T18:09:14.767Z,5.37
2018-09-28T18:11:42.190Z,5.23
2018-09-28T18:14:09.790Z,4.70
2018-09-28T18:16:37.173Z,4.80
2018-09-28T18:19:05.008Z,5.40
2018-09-28T18:21:32.538Z,5.33
2018-09-28T18:24:00.046Z,5.30
2018-09-28T18:26:27.500Z,5.60
2018-09-28T18:28:54.970Z,7.60
2018-09-28T18:31:23.288Z,6.37
2018-09-28T18:33:50.747Z,7.03
2018-09-28T18:36:18.238Z,7.80
2018-09-28T18:38:45.722Z,6.57
2018-09-28T18:41:13.145Z,7.63
2018-09-28T18:43:40.534Z,7.03
2018-09-28T18:46:08.168Z,6.80
2018-09-28T18:48:35.691Z,7.50
2018-09-28T18:51:02.987Z,5.60
2018-09-28T18:53:30.433Z,6.27
2018-09-28T18:55:57.962Z,6.53
2018-09-28T18:58:25.493Z,6.17
2018-09-28T19:00:53.030Z,6.30
2018-09-28T19:03:20.519Z,7.10
2018-09-28T19:05:47.956Z,5.87
2018-09-28T19:08:15.320Z,5.60
2018-09-28T19:10:43.152Z,5.67
2018-09-28T19:13:10.542Z,5.70
2018-09-28T19:15:40.300Z,6.23
2018-09-28T19:18:07.765Z,5.83
2018-09-28T19:20:35.225Z,5.90
2018-09-28T19:23:02.587Z,6.17
2018-09-28T19:25:35.539Z,5.83
2018-09-28T19:28:02.998Z,6.40
2018-09-28T19:30:30.503Z,5.50
2018-09-28T19:32:57.885Z,5.43
2018-09-28T19:35:25.424Z,7.00
2018-09-28T19:37:52.827Z,6.10
2018-09-28T19:40:20.300Z,5.83
2018-09-28T19:42:47.787Z,6.13
2018-09-28T19:45:15.184Z,5.83
2018-09-28T19:47:42.743Z,5.60
2018-09-28T19:50:10.247Z,5.30
2018-09-28T19:52:37.658Z,5.10
2018-09-28T19:55:05.099Z,5.50
2018-09-28T19:57:32.505Z,6.50
2018-09-28T19:59:59.992Z,5.63
2018-09-28T20:02:27.449Z,4.87
2018-09-28T20:04:54.900Z,6.00
2018-09-28T20:07:22.404Z,6.50
2018-09-28T20:09:49.794Z,5.90
2018-09-28T20:12:17.250Z,6.23
2018-09-28T20:14:44.797Z,6.20
2018-09-28T20:17:12.158Z,5.63
2018-09-28T20:19:39.776Z,6.50
2018-09-28T20:22:09.073Z,5.50
2018-09-28T20:24:36.508Z,5.87
2018-09-28T20:27:04.006Z,6.27
2018-09-28T20:29:31.379Z,6.63
2018-09-28T20:31:58.912Z,6.30
2018-09-28T20:34:26.358Z,6.70
2018-09-28T20:36:53.812Z,6.60
2018-09-28T20:39:21.390Z,7.27
2018-09-28T20:41:48.760Z,7.00
2018-09-28T20:44:16.256Z,7.33
2018-09-28T20:46:43.647Z,7.20
2018-09-28T20:49:11.107Z,7.70
2018-09-28T20:51:38.566Z,6.83
2018-09-28T20:54:06.064Z,7.20
2018-09-28T20:56:33.460Z,7.10
2018-09-28T20:59:00.906Z,7.70
2018-09-28T21:01:28.396Z,7.70
2018-09-28T21:03:55.954Z,7.30
2018-09-28T21:06:23.471Z,8.00
2018-09-28T21:08:50.849Z,7.97
2018-09-28T21:11:18.296Z,8.27
2018-09-28T21:13:45.890Z,8.93
2018-09-28T21:16:13.554Z,7.80
2018-09-28T21:18:40.912Z,8.37
2018-09-28T21:21:08.401Z,8.53
2018-09-28T21:23:35.945Z,7.63
2018-09-28T21:26:03.472Z,8.47
2018-09-28T21:28:30.888Z,8.67
2018-09-28T21:30:58.306Z,9.40
2018-09-28T21:33:25.786Z,9.07
2018-09-28T21:35:53.252Z,8.80
2018-09-28T21:38:20.699Z,8.53
2018-09-28T21:40:48.106Z,8.70
2018-09-28T21:43:15.724Z,10.00
2018-09-28T21:45:43.195Z,8.30
2018-09-28T21:48:10.590Z,8.30
2018-09-28T21:50:38.016Z,7.87
2018-09-28T21:53:05.444Z,8.53
2018-09-28T21:55:32.886Z,7.97
2018-09-28T21:58:00.316Z,7.30
2018-09-28T22:00:27.886Z,7.30
2018-09-28T22:02:55.297Z,6.90
2018-09-28T22:05:22.752Z,7.50
2018-09-28T22:07:50.154Z,6.70
2018-09-28T22:10:17.595Z,8.33
2018-09-28T22:12:44.950Z,9.00
2018-09-28T22:15:12.310Z,8.67
2018-09-28T22:17:39.657Z,8.30
2018-09-28T22:20:07.143Z,8.33
2018-09-28T22:22:34.528Z,7.50
2018-09-28T22:25:01.902Z,8.10
2018-09-28T22:27:29.375Z,8.17
2018-09-28T22:29:56.758Z,8.30
2018-09-28T22:32:24.245Z,8.40
2018-09-28T22:34:51.642Z,7.50
2018-09-28T22:37:19.011Z,8.03
2018-09-28T22:39:46.480Z,7.87
2018-09-28T22:42:13.884Z,6.00
2018-09-28T22:44:41.404Z,6.60
2018-09-28T22:47:08.801Z,7.70
2018-09-28T22:49:36.267Z,6.90
2018-09-28T22:52:03.652Z,6.90
2018-09-28T22:54:31.039Z,7.30
2018-09-28T22:56:58.540Z,6.33
2018-09-28T22:59:26.099Z,6.77
2018-09-28T23:01:53.540Z,7.50
2018-09-28T23:04:20.931Z,6.70
2018-09-28T23:06:48.354Z,7.20
2018-09-28T23:09:15.820Z,6.43
2018-09-28T23:11:43.280Z,5.90
2018-09-28T23:14:10.754Z,6.67
2018-09-28T23:16:38.168Z,6.50
2018-09-28T23:19:05.634Z,6.07
2018-09-28T23:21:33.047Z,6.00
2018-09-28T23:24:00.440Z,6.57
2018-09-28T23:26:28.365Z,6.40
2018-09-28T23:28:55.696Z,6.13
2018-09-28T23:31:23.192Z,5.37
2018-09-28T23:33:50.557Z,5.60
2018-09-28T23:36:18.049Z,6.33
2018-09-28T23:38:45.552Z,5.90
2018-09-28T23:41:12.976Z,6.70
2018-09-28T23:43:40.415Z,5.73
2018-09-28T23:46:07.844Z,6.63
2018-09-28T23:48:35.198Z,5.53
2018-09-28T23:51:02.653Z,4.73
2018-09-28T23:53:30.143Z,5.70
2018-09-28T23:55:57.541Z,4.50
2018-09-28T23:58:25.056Z,5.73
